sensor_id;sensor_type;location;lat;lon;timestamp;pressure;altitude;pressure_sealevel;temperature;humidity
59686;BME280;45554;51.096;16.976;2022-11-21T00:03:40;99413.76;;;-3.41;74.81
59686;BME280;45554;51.096;16.976;2022-11-21T00:06:08;99410.17;;;-3.41;74.87
59686;BME280;45554;51.096;16.976;2022-11-21T00:08:36;99404.85;;;-3.40;75.37
59686;BME280;45554;51.096;16.976;2022-11-21T00:11:04;99407.06;;;-3.39;75.64
59686;BME280;45554;51.096;16.976;2022-11-21T00:13:31;99404.51;;;-3.39;75.92
59686;BME280;45554;51.096;16.976;2022-11-21T00:16:08;99398.50;;;-3.40;75.83
59686;BME280;45554;51.096;16.976;2022-11-21T00:18:36;99398.36;;;-3.42;75.75
59686;BME280;45554;51.096;16.976;2022-11-21T00:21:07;99395.45;;;-3.43;76.02
59686;BME280;45554;51.096;16.976;2022-11-21T00:23:36;99396.51;;;-3.44;76.00
59686;BME280;45554;51.096;16.976;2022-11-21T00:26:08;99403.00;;;-3.43;76.38
59686;BME280;45554;51.096;16.976;2022-11-21T00:28:37;99400.40;;;-3.41;76.35
59686;BME280;45554;51.096;16.976;2022-11-21T00:31:06;99396.81;;;-3.40;76.40
59686;BME280;45554;51.096;16.976;2022-11-21T00:33:34;99391.11;;;-3.37;76.63
59686;BME280;45554;51.096;16.976;2022-11-21T00:36:07;99391.44;;;-3.36;76.64
59686;BME280;45554;51.096;16.976;2022-11-21T00:38:35;99387.80;;;-3.34;76.65
59686;BME280;45554;51.096;16.976;2022-11-21T00:41:04;99387.10;;;-3.32;76.58
59686;BME280;45554;51.096;16.976;2022-11-21T00:43:33;99382.08;;;-3.28;76.66
59686;BME280;45554;51.096;16.976;2022-11-21T00:46:01;99383.56;;;-3.24;76.62
59686;BME280;45554;51.096;16.976;2022-11-21T00:48:30;99378.54;;;-3.19;76.62
59686;BME280;45554;51.096;16.976;2022-11-21T00:50:59;99380.01;;;-3.14;76.61
59686;BME280;45554;51.096;16.976;2022-11-21T00:53:28;99380.65;;;-3.10;76.63
59686;BME280;45554;51.096;16.976;2022-11-21T00:55:56;99385.73;;;-3.06;76.64
59686;BME280;45554;51.096;16.976;2022-11-21T00:58:24;99386.71;;;-3.02;76.46
59686;BME280;45554;51.096;16.976;2022-11-21T01:04:16;99372.59;;;-2.97;76.22
59686;BME280;45554;51.096;16.976;2022-11-21T01:06:44;99362.77;;;-2.95;76.30
59686;BME280;45554;51.096;16.976;2022-11-21T01:09:13;99353.62;;;-2.90;76.50
59686;BME280;45554;51.096;16.976;2022-11-21T01:11:41;99336.74;;;-2.85;76.32
59686;BME280;45554;51.096;16.976;2022-11-21T01:14:09;99331.67;;;-2.80;76.24
59686;BME280;45554;51.096;16.976;2022-11-21T01:16:37;99332.48;;;-2.76;76.04
59686;BME280;45554;51.096;16.976;2022-11-21T01:19:07;99335.84;;;-2.71;76.17
59686;BME280;45554;51.096;16.976;2022-11-21T01:21:36;99339.67;;;-2.65;76.09
59686;BME280;45554;51.096;16.976;2022-11-21T01:24:06;99338.73;;;-2.60;76.04
59686;BME280;45554;51.096;16.976;2022-11-21T01:26:34;99334.18;;;-2.54;75.83
59686;BME280;45554;51.096;16.976;2022-11-21T01:29:05;99334.30;;;-2.51;75.77
59686;BME280;45554;51.096;16.976;2022-11-21T01:31:35;99333.03;;;-2.46;75.71
59686;BME280;45554;51.096;16.976;2022-11-21T01:34:04;99327.11;;;-2.41;75.67
59686;BME280;45554;51.096;16.976;2022-11-21T01:36:33;99323.09;;;-2.36;75.57
59686;BME280;45554;51.096;16.976;2022-11-21T01:39:03;99312.54;;;-2.32;75.49
59686;BME280;45554;51.096;16.976;2022-11-21T01:41:40;99318.30;;;-2.27;75.47
59686;BME280;45554;51.096;16.976;2022-11-21T01:46:46;99299.73;;;-2.17;75.39
59686;BME280;45554;51.096;16.976;2022-11-21T01:49:26;99300.71;;;-2.14;75.41
59686;BME280;45554;51.096;16.976;2022-11-21T01:52:25;99303.71;;;-2.09;75.31
59686;BME280;45554;51.096;16.976;2022-11-21T01:55:00;99301.36;;;-2.03;75.19
59686;BME280;45554;51.096;16.976;2022-11-21T01:57:34;99297.52;;;-1.99;75.17
59686;BME280;45554;51.096;16.976;2022-11-21T02:00:09;99295.52;;;-1.94;75.18
59686;BME280;45554;51.096;16.976;2022-11-21T02:02:42;99294.58;;;-1.90;75.15
59686;BME280;45554;51.096;16.976;2022-11-21T02:05:19;99290.91;;;-1.86;75.03
59686;BME280;45554;51.096;16.976;2022-11-21T02:07:51;99291.86;;;-1.83;75.02
59686;BME280;45554;51.096;16.976;2022-11-21T02:10:22;99281.65;;;-1.80;75.04
59686;BME280;45554;51.096;16.976;2022-11-21T02:12:52;99276.96;;;-1.76;75.00
59686;BME280;45554;51.096;16.976;2022-11-21T02:15:27;99281.53;;;-1.73;75.09
59686;BME280;45554;51.096;16.976;2022-11-21T02:17:55;99277.70;;;-1.70;74.94
59686;BME280;45554;51.096;16.976;2022-11-21T02:20:24;99273.84;;;-1.66;74.91
59686;BME280;45554;51.096;16.976;2022-11-21T02:23:16;99281.13;;;-1.61;74.89
59686;BME280;45554;51.096;16.976;2022-11-21T02:25:50;99272.48;;;-1.58;74.86
59686;BME280;45554;51.096;16.976;2022-11-21T02:28:20;99261.59;;;-1.56;74.79
59686;BME280;45554;51.096;16.976;2022-11-21T02:30:50;99256.03;;;-1.53;74.75
59686;BME280;45554;51.096;16.976;2022-11-21T02:33:18;99252.31;;;-1.48;74.69
59686;BME280;45554;51.096;16.976;2022-11-21T02:35:55;99247.19;;;-1.42;74.83
59686;BME280;45554;51.096;16.976;2022-11-21T02:38:36;99242.27;;;-1.37;74.60
59686;BME280;45554;51.096;16.976;2022-11-21T02:41:11;99237.35;;;-1.32;74.60
59686;BME280;45554;51.096;16.976;2022-11-21T02:43:45;99233.63;;;-1.27;74.69
59686;BME280;45554;51.096;16.976;2022-11-21T02:46:14;99234.35;;;-1.21;74.50
59686;BME280;45554;51.096;16.976;2022-11-21T02:48:42;99229.44;;;-1.17;74.44
59686;BME280;45554;51.096;16.976;2022-11-21T02:51:10;99224.54;;;-1.14;74.55
59686;BME280;45554;51.096;16.976;2022-11-21T02:53:38;99225.66;;;-1.10;74.42
59686;BME280;45554;51.096;16.976;2022-11-21T02:56:06;99221.11;;;-1.07;74.24
59686;BME280;45554;51.096;16.976;2022-11-21T02:58:34;99216.80;;;-1.06;74.17
59686;BME280;45554;51.096;16.976;2022-11-21T03:01:02;99210.08;;;-1.06;74.36
59686;BME280;45554;51.096;16.976;2022-11-21T03:03:30;99207.16;;;-1.06;74.42
59686;BME280;45554;51.096;16.976;2022-11-21T03:05:58;99200.39;;;-1.04;74.34
59686;BME280;45554;51.096;16.976;2022-11-21T03:08:26;99195.16;;;-1.01;74.56
59686;BME280;45554;51.096;16.976;2022-11-21T03:10:54;99190.27;;;-0.97;74.59
59686;BME280;45554;51.096;16.976;2022-11-21T03:13:22;99188.97;;;-0.94;74.48
59686;BME280;45554;51.096;16.976;2022-11-21T03:15:50;99189.55;;;-0.90;74.55
59686;BME280;45554;51.096;16.976;2022-11-21T03:18:18;99187.89;;;-0.85;74.54
59686;BME280;45554;51.096;16.976;2022-11-21T03:20:46;99178.55;;;-0.83;74.66
59686;BME280;45554;51.096;16.976;2022-11-21T03:23:14;99178.27;;;-0.78;74.48
59686;BME280;45554;51.096;16.976;2022-11-21T03:25:42;99169.89;;;-0.74;74.52
59686;BME280;45554;51.096;16.976;2022-11-21T03:28:10;99165.34;;;-0.72;74.58
59686;BME280;45554;51.096;16.976;2022-11-21T03:30:38;99165.40;;;-0.67;74.64
59686;BME280;45554;51.096;16.976;2022-11-21T03:33:06;99163.78;;;-0.65;74.37
59686;BME280;45554;51.096;16.976;2022-11-21T03:35:33;99162.38;;;-0.63;74.49
59686;BME280;45554;51.096;16.976;2022-11-21T03:38:01;99152.85;;;-0.61;74.55
59686;BME280;45554;51.096;16.976;2022-11-21T03:40:29;99138.86;;;-0.59;74.51
59686;BME280;45554;51.096;16.976;2022-11-21T03:43:03;99129.69;;;-0.58;74.30
59686;BME280;45554;51.096;16.976;2022-11-21T03:45:31;99126.04;;;-0.57;74.23
59686;BME280;45554;51.096;16.976;2022-11-21T03:48:02;99125.08;;;-0.53;74.69
59686;BME280;45554;51.096;16.976;2022-11-21T03:50:29;99116.42;;;-0.51;74.42
59686;BME280;45554;51.096;16.976;2022-11-21T03:52:57;99110.85;;;-0.49;74.39
59686;BME280;45554;51.096;16.976;2022-11-21T03:55:25;99108.73;;;-0.47;74.48
59686;BME280;45554;51.096;16.976;2022-11-21T03:57:53;99108.41;;;-0.48;74.63
59686;BME280;45554;51.096;16.976;2022-11-21T04:00:21;99104.64;;;-0.48;74.42
59686;BME280;45554;51.096;16.976;2022-11-21T04:02:49;99106.45;;;-0.51;74.63
59686;BME280;45554;51.096;16.976;2022-11-21T04:05:17;99107.90;;;-0.54;74.73
59686;BME280;45554;51.096;16.976;2022-11-21T04:07:45;99105.37;;;-0.56;74.60
59686;BME280;45554;51.096;16.976;2022-11-21T04:10:14;99098.08;;;-0.59;74.85
59686;BME280;45554;51.096;16.976;2022-11-21T04:12:42;99093.27;;;-0.60;74.90
59686;BME280;45554;51.096;16.976;2022-11-21T04:15:09;99090.95;;;-0.57;74.96
59686;BME280;45554;51.096;16.976;2022-11-21T04:17:40;99092.66;;;-0.57;74.97
59686;BME280;45554;51.096;16.976;2022-11-21T04:20:08;99089.08;;;-0.58;75.19
59686;BME280;45554;51.096;16.976;2022-11-21T04:22:37;99087.17;;;-0.58;75.34
59686;BME280;45554;51.096;16.976;2022-11-21T04:25:05;99082.88;;;-0.58;75.30
59686;BME280;45554;51.096;16.976;2022-11-21T04:27:33;99078.58;;;-0.58;75.29
59686;BME280;45554;51.096;16.976;2022-11-21T04:30:00;99072.53;;;-0.57;75.35
59686;BME280;45554;51.096;16.976;2022-11-21T04:32:28;99057.06;;;-0.58;75.10
59686;BME280;45554;51.096;16.976;2022-11-21T04:34:56;99053.79;;;-0.57;75.42
59686;BME280;45554;51.096;16.976;2022-11-21T04:37:24;99048.42;;;-0.57;75.38
59686;BME280;45554;51.096;16.976;2022-11-21T04:39:51;99047.20;;;-0.56;75.69
59686;BME280;45554;51.096;16.976;2022-11-21T04:42:19;99040.92;;;-0.52;75.55
59686;BME280;45554;51.096;16.976;2022-11-21T04:44:47;99035.67;;;-0.50;75.75
59686;BME280;45554;51.096;16.976;2022-11-21T04:47:15;99036.62;;;-0.47;75.76
59686;BME280;45554;51.096;16.976;2022-11-21T04:49:42;99037.17;;;-0.48;75.49
59686;BME280;45554;51.096;16.976;2022-11-21T04:52:10;99031.02;;;-0.50;75.66
59686;BME280;45554;51.096;16.976;2022-11-21T04:54:39;99033.28;;;-0.50;75.63
59686;BME280;45554;51.096;16.976;2022-11-21T04:57:07;99035.34;;;-0.50;75.67
59686;BME280;45554;51.096;16.976;2022-11-21T04:59:35;99036.14;;;-0.48;75.78
59686;BME280;45554;51.096;16.976;2022-11-21T05:02:03;99031.89;;;-0.44;75.94
59686;BME280;45554;51.096;16.976;2022-11-21T05:04:31;99025.79;;;-0.42;76.04
59686;BME280;45554;51.096;16.976;2022-11-21T05:06:58;99018.98;;;-0.38;75.57
59686;BME280;45554;51.096;16.976;2022-11-21T05:09:26;99011.55;;;-0.38;75.96
59686;BME280;45554;51.096;16.976;2022-11-21T05:11:54;99007.91;;;-0.37;75.71
59686;BME280;45554;51.096;16.976;2022-11-21T05:14:41;99010.45;;;-0.35;76.17
59686;BME280;45554;51.096;16.976;2022-11-21T05:17:08;99011.04;;;-0.32;76.09
59686;BME280;45554;51.096;16.976;2022-11-21T05:19:36;99008.84;;;-0.28;75.94
59686;BME280;45554;51.096;16.976;2022-11-21T05:22:04;99004.42;;;-0.24;75.78
59686;BME280;45554;51.096;16.976;2022-11-21T05:24:31;99001.77;;;-0.22;75.85
59686;BME280;45554;51.096;16.976;2022-11-21T05:26:59;98998.86;;;-0.22;76.07
59686;BME280;45554;51.096;16.976;2022-11-21T05:29:27;98992.73;;;-0.19;76.16
59686;BME280;45554;51.096;16.976;2022-11-21T05:31:55;98983.05;;;-0.18;76.01
59686;BME280;45554;51.096;16.976;2022-11-21T05:34:22;98976.45;;;-0.17;75.59
59686;BME280;45554;51.096;16.976;2022-11-21T05:36:54;98976.68;;;-0.12;75.91
59686;BME280;45554;51.096;16.976;2022-11-21T05:39:27;98974.23;;;-0.11;75.98
59686;BME280;45554;51.096;16.976;2022-11-21T05:41:57;98969.50;;;-0.09;75.97
59686;BME280;45554;51.096;16.976;2022-11-21T05:44:29;98966.84;;;-0.07;75.72
59686;BME280;45554;51.096;16.976;2022-11-21T05:46:58;98961.17;;;-0.07;75.66
59686;BME280;45554;51.096;16.976;2022-11-21T05:49:25;98954.65;;;-0.07;75.65
59686;BME280;45554;51.096;16.976;2022-11-21T05:51:53;98952.98;;;-0.10;75.29
59686;BME280;45554;51.096;16.976;2022-11-21T05:54:21;98957.58;;;-0.13;75.36
59686;BME280;45554;51.096;16.976;2022-11-21T05:56:49;98952.80;;;-0.14;75.52
59686;BME280;45554;51.096;16.976;2022-11-21T05:59:16;98946.80;;;-0.15;75.56
59686;BME280;45554;51.096;16.976;2022-11-21T06:01:44;98950.24;;;-0.15;75.87
59686;BME280;45554;51.096;16.976;2022-11-21T06:04:30;98948.11;;;-0.13;75.81
59686;BME280;45554;51.096;16.976;2022-11-21T06:06:58;98942.20;;;-0.12;75.83
59686;BME280;45554;51.096;16.976;2022-11-21T06:09:26;98943.87;;;-0.10;75.89
59686;BME280;45554;51.096;16.976;2022-11-21T06:11:54;98935.27;;;-0.10;75.88
59686;BME280;45554;51.096;16.976;2022-11-21T06:14:22;98938.06;;;-0.11;75.71
59686;BME280;45554;51.096;16.976;2022-11-21T06:16:50;98932.29;;;-0.14;75.64
59686;BME280;45554;51.096;16.976;2022-11-21T06:19:18;98930.16;;;-0.18;75.78
59686;BME280;45554;51.096;16.976;2022-11-21T06:21:46;98930.35;;;-0.18;75.73
59686;BME280;45554;51.096;16.976;2022-11-21T06:24:13;98929.98;;;-0.17;76.10
59686;BME280;45554;51.096;16.976;2022-11-21T06:26:48;98929.28;;;-0.17;76.28
59686;BME280;45554;51.096;16.976;2022-11-21T06:29:16;98925.27;;;-0.16;76.33
59686;BME280;45554;51.096;16.976;2022-11-21T06:31:44;98920.12;;;-0.16;76.16
59686;BME280;45554;51.096;16.976;2022-11-21T06:34:12;98920.08;;;-0.14;76.27
59686;BME280;45554;51.096;16.976;2022-11-21T06:36:43;98917.62;;;-0.13;76.36
59686;BME280;45554;51.096;16.976;2022-11-21T06:39:11;98919.27;;;-0.10;76.19
59686;BME280;45554;51.096;16.976;2022-11-21T06:41:39;98921.41;;;-0.08;76.10
59686;BME280;45554;51.096;16.976;2022-11-21T06:44:07;98919.92;;;-0.04;76.50
59686;BME280;45554;51.096;16.976;2022-11-21T06:46:34;98916.20;;;-0.01;76.42
59686;BME280;45554;51.096;16.976;2022-11-21T06:49:05;98918.36;;;0.01;76.38
59686;BME280;45554;51.096;16.976;2022-11-21T06:51:33;98919.64;;;0.04;76.28
59686;BME280;45554;51.096;16.976;2022-11-21T06:54:01;98914.41;;;0.06;76.25
59686;BME280;45554;51.096;16.976;2022-11-21T06:56:30;98914.36;;;0.08;76.27
59686;BME280;45554;51.096;16.976;2022-11-21T06:58:58;98914.78;;;0.10;76.30
59686;BME280;45554;51.096;16.976;2022-11-21T07:01:26;98913.44;;;0.14;76.10
59686;BME280;45554;51.096;16.976;2022-11-21T07:03:54;98915.74;;;0.18;76.33
59686;BME280;45554;51.096;16.976;2022-11-21T07:06:22;98920.98;;;0.21;76.22
59686;BME280;45554;51.096;16.976;2022-11-21T07:08:52;98916.54;;;0.24;76.03
59686;BME280;45554;51.096;16.976;2022-11-21T07:11:41;98926.91;;;0.29;76.25
59686;BME280;45554;51.096;16.976;2022-11-21T07:14:09;98927.67;;;0.32;76.18
59686;BME280;45554;51.096;16.976;2022-11-21T07:16:36;98929.61;;;0.36;76.25
59686;BME280;45554;51.096;16.976;2022-11-21T07:19:04;98924.70;;;0.38;75.90
59686;BME280;45554;51.096;16.976;2022-11-21T07:21:33;98918.52;;;0.42;76.23
59686;BME280;45554;51.096;16.976;2022-11-21T07:24:01;98922.82;;;0.47;76.24
59686;BME280;45554;51.096;16.976;2022-11-21T07:26:29;98919.84;;;0.53;75.95
59686;BME280;45554;51.096;16.976;2022-11-21T07:28:57;98923.65;;;0.58;76.07
59686;BME280;45554;51.096;16.976;2022-11-21T07:31:25;98919.63;;;0.64;75.94
59686;BME280;45554;51.096;16.976;2022-11-21T07:33:53;98920.48;;;0.69;76.02
59686;BME280;45554;51.096;16.976;2022-11-21T07:36:21;98922.33;;;0.76;75.90
59686;BME280;45554;51.096;16.976;2022-11-21T07:38:48;98922.34;;;0.80;75.61
59686;BME280;45554;51.096;16.976;2022-11-21T07:41:16;98924.89;;;0.86;75.59
59686;BME280;45554;51.096;16.976;2022-11-21T07:43:44;98919.36;;;0.91;75.72
59686;BME280;45554;51.096;16.976;2022-11-21T07:46:12;98918.14;;;0.96;75.45
59686;BME280;45554;51.096;16.976;2022-11-21T07:48:40;98914.22;;;0.99;75.56
59686;BME280;45554;51.096;16.976;2022-11-21T07:51:07;98910.36;;;1.05;75.61
59686;BME280;45554;51.096;16.976;2022-11-21T07:53:36;98912.34;;;1.12;75.50
59686;BME280;45554;51.096;16.976;2022-11-21T07:56:04;98908.65;;;1.19;75.40
59686;BME280;45554;51.096;16.976;2022-11-21T07:58:35;98908.91;;;1.26;75.30
59686;BME280;45554;51.096;16.976;2022-11-21T08:01:04;98904.23;;;1.31;75.20
59686;BME280;45554;51.096;16.976;2022-11-21T08:03:33;98906.46;;;1.39;75.54
59686;BME280;45554;51.096;16.976;2022-11-21T08:06:02;98907.58;;;1.47;75.36
59686;BME280;45554;51.096;16.976;2022-11-21T08:08:33;98907.73;;;1.56;75.43
59686;BME280;45554;51.096;16.976;2022-11-21T08:11:06;98908.65;;;1.63;75.38
59686;BME280;45554;51.096;16.976;2022-11-21T08:13:34;98912.37;;;1.70;75.18
59686;BME280;45554;51.096;16.976;2022-11-21T08:16:04;98908.68;;;1.76;75.09
59686;BME280;45554;51.096;16.976;2022-11-21T08:18:32;98907.13;;;1.80;74.95
59686;BME280;45554;51.096;16.976;2022-11-21T08:21:01;98907.98;;;1.88;75.09
59686;BME280;45554;51.096;16.976;2022-11-21T08:23:30;98900.42;;;1.96;75.09
59686;BME280;45554;51.096;16.976;2022-11-21T08:25:58;98903.35;;;2.04;75.08
59686;BME280;45554;51.096;16.976;2022-11-21T08:28:26;98906.17;;;2.11;75.10
59686;BME280;45554;51.096;16.976;2022-11-21T08:30:54;98907.96;;;2.18;75.12
59686;BME280;45554;51.096;16.976;2022-11-21T08:33:22;98904.85;;;2.26;75.02
59686;BME280;45554;51.096;16.976;2022-11-21T08:35:50;98908.95;;;2.31;75.00
59686;BME280;45554;51.096;16.976;2022-11-21T08:38:18;98912.06;;;2.40;75.12
59686;BME280;45554;51.096;16.976;2022-11-21T08:40:46;98915.18;;;2.47;75.12
59686;BME280;45554;51.096;16.976;2022-11-21T08:43:34;98910.95;;;2.57;75.12
59686;BME280;45554;51.096;16.976;2022-11-21T08:46:05;98911.30;;;2.65;74.98
59686;BME280;45554;51.096;16.976;2022-11-21T08:48:40;98908.55;;;2.72;74.85
59686;BME280;45554;51.096;16.976;2022-11-21T08:51:08;98911.89;;;2.79;74.84
59686;BME280;45554;51.096;16.976;2022-11-21T08:53:36;98910.11;;;2.88;74.96
59686;BME280;45554;51.096;16.976;2022-11-21T08:56:04;98908.00;;;2.97;74.65
59686;BME280;45554;51.096;16.976;2022-11-21T08:58:31;98907.39;;;3.02;74.67
59686;BME280;45554;51.096;16.976;2022-11-21T09:01:00;98910.30;;;3.07;74.38
59686;BME280;45554;51.096;16.976;2022-11-21T09:03:29;98915.63;;;3.08;74.19
59686;BME280;45554;51.096;16.976;2022-11-21T09:05:58;98917.47;;;3.09;74.25
59686;BME280;45554;51.096;16.976;2022-11-21T09:08:28;98913.23;;;3.07;74.12
59686;BME280;45554;51.096;16.976;2022-11-21T09:11:05;98915.95;;;3.08;74.10
59686;BME280;45554;51.096;16.976;2022-11-21T09:13:34;98920.83;;;3.07;74.18
59686;BME280;45554;51.096;16.976;2022-11-21T09:16:02;98922.44;;;3.07;74.06
59686;BME280;45554;51.096;16.976;2022-11-21T09:18:51;98919.44;;;3.08;74.07
59686;BME280;45554;51.096;16.976;2022-11-21T09:21:20;98920.00;;;3.07;74.23
59686;BME280;45554;51.096;16.976;2022-11-21T09:23:49;98922.23;;;3.07;74.26
59686;BME280;45554;51.096;16.976;2022-11-21T09:26:17;98922.84;;;3.09;74.40
59686;BME280;45554;51.096;16.976;2022-11-21T09:28:45;98926.12;;;3.13;74.54
59686;BME280;45554;51.096;16.976;2022-11-21T09:31:13;98927.11;;;3.18;74.44
59686;BME280;45554;51.096;16.976;2022-11-21T09:33:41;98923.71;;;3.20;74.53
59686;BME280;45554;51.096;16.976;2022-11-21T09:36:09;98925.36;;;3.26;74.69
59686;BME280;45554;51.096;16.976;2022-11-21T09:38:43;98923.66;;;3.29;74.56
59686;BME280;45554;51.096;16.976;2022-11-21T09:41:26;98919.17;;;3.32;74.59
59686;BME280;45554;51.096;16.976;2022-11-21T09:44:53;98922.92;;;3.34;74.63
59686;BME280;45554;51.096;16.976;2022-11-21T09:47:26;98925.64;;;3.35;74.58
59686;BME280;45554;51.096;16.976;2022-11-21T09:50:04;98923.62;;;3.37;74.71
59686;BME280;45554;51.096;16.976;2022-11-21T09:57:55;98923.40;;;3.57;75.09
59686;BME280;45554;51.096;16.976;2022-11-21T10:00:24;98925.89;;;3.66;75.16
59686;BME280;45554;51.096;16.976;2022-11-21T10:07:03;98922.04;;;3.96;75.02
59686;BME280;45554;51.096;16.976;2022-11-21T10:18:34;98908.96;;;4.52;74.80
59686;BME280;45554;51.096;16.976;2022-11-21T10:24:00;98903.34;;;4.80;74.24
59686;BME280;45554;51.096;16.976;2022-11-21T10:26:49;98904.57;;;4.93;74.42
59686;BME280;45554;51.096;16.976;2022-11-21T10:32:08;98905.80;;;5.12;74.19
59686;BME280;45554;51.096;16.976;2022-11-21T10:34:38;98907.54;;;5.22;74.06
59686;BME280;45554;51.096;16.976;2022-11-21T10:37:26;98907.66;;;5.29;73.95
59686;BME280;45554;51.096;16.976;2022-11-21T10:39:55;98915.44;;;5.36;73.66
59686;BME280;45554;51.096;16.976;2022-11-21T10:42:40;98918.11;;;5.41;73.95
59686;BME280;45554;51.096;16.976;2022-11-21T10:45:12;98916.63;;;5.46;73.60
59686;BME280;45554;51.096;16.976;2022-11-21T10:47:48;98919.03;;;5.50;73.46
59686;BME280;45554;51.096;16.976;2022-11-21T10:53:14;98916.39;;;5.57;73.27
59686;BME280;45554;51.096;16.976;2022-11-21T10:56:18;98914.12;;;5.57;72.91
59686;BME280;45554;51.096;16.976;2022-11-21T10:58:55;98913.88;;;5.58;72.68
59686;BME280;45554;51.096;16.976;2022-11-21T11:01:29;98917.84;;;5.61;72.65
59686;BME280;45554;51.096;16.976;2022-11-21T11:06:55;98916.04;;;5.66;72.41
59686;BME280;45554;51.096;16.976;2022-11-21T11:09:32;98916.76;;;5.69;72.48
59686;BME280;45554;51.096;16.976;2022-11-21T11:15:22;98916.86;;;5.79;72.07
59686;BME280;45554;51.096;16.976;2022-11-21T11:17:57;98918.36;;;5.83;72.12
59686;BME280;45554;51.096;16.976;2022-11-21T11:20:40;98922.40;;;5.89;72.08
59686;BME280;45554;51.096;16.976;2022-11-21T11:23:27;98922.33;;;5.93;71.98
59686;BME280;45554;51.096;16.976;2022-11-21T11:25:57;98927.45;;;5.98;71.98
59686;BME280;45554;51.096;16.976;2022-11-21T11:28:34;98926.54;;;6.02;71.69
59686;BME280;45554;51.096;16.976;2022-11-21T11:31:03;98929.45;;;6.06;71.92
59686;BME280;45554;51.096;16.976;2022-11-21T11:38:53;98932.45;;;6.14;71.44
59686;BME280;45554;51.096;16.976;2022-11-21T11:48:05;98933.95;;;6.22;71.03
59686;BME280;45554;51.096;16.976;2022-11-21T11:56:00;98934.40;;;6.20;70.64
59686;BME280;45554;51.096;16.976;2022-11-21T12:01:35;98941.71;;;6.17;70.56
59686;BME280;45554;51.096;16.976;2022-11-21T12:04:14;98946.15;;;6.15;70.45
59686;BME280;45554;51.096;16.976;2022-11-21T12:10:00;98960.64;;;6.08;70.47
59686;BME280;45554;51.096;16.976;2022-11-21T12:12:40;98967.69;;;5.97;69.91
59686;BME280;45554;51.096;16.976;2022-11-21T12:15:28;98975.85;;;5.88;70.20
59686;BME280;45554;51.096;16.976;2022-11-21T12:21:06;98985.00;;;5.60;70.31
59686;BME280;45554;51.096;16.976;2022-11-21T12:23:48;98987.32;;;5.43;70.44
59686;BME280;45554;51.096;16.976;2022-11-21T12:29:09;98999.67;;;5.04;71.01
59686;BME280;45554;51.096;16.976;2022-11-21T12:39:57;99016.19;;;4.42;72.91
59686;BME280;45554;51.096;16.976;2022-11-21T12:51:06;99032.74;;;3.90;74.86
59686;BME280;45554;51.096;16.976;2022-11-21T12:57:11;99039.79;;;3.69;75.83
59686;BME280;45554;51.096;16.976;2022-11-21T13:02:33;99035.98;;;3.57;76.18
59686;BME280;45554;51.096;16.976;2022-11-21T13:05:04;99040.98;;;3.50;77.09
59686;BME280;45554;51.096;16.976;2022-11-21T13:07:37;99041.91;;;3.45;77.09
59686;BME280;45554;51.096;16.976;2022-11-21T13:10:11;99048.11;;;3.38;77.30
59686;BME280;45554;51.096;16.976;2022-11-21T13:12:52;99057.77;;;3.35;77.78
59686;BME280;45554;51.096;16.976;2022-11-21T13:15:36;99053.17;;;3.29;77.78
59686;BME280;45554;51.096;16.976;2022-11-21T13:18:30;99059.39;;;3.25;77.93
59686;BME280;45554;51.096;16.976;2022-11-21T13:21:00;99060.13;;;3.24;77.89
59686;BME280;45554;51.096;16.976;2022-11-21T13:23:41;99060.98;;;3.21;77.93
59686;BME280;45554;51.096;16.976;2022-11-21T13:29:11;99072.91;;;3.13;78.30
59686;BME280;45554;51.096;16.976;2022-11-21T13:31:40;99072.64;;;3.08;78.08
59686;BME280;45554;51.096;16.976;2022-11-21T13:34:34;99079.22;;;2.99;78.06
59686;BME280;45554;51.096;16.976;2022-11-21T13:37:04;99087.98;;;2.93;78.19
59686;BME280;45554;51.096;16.976;2022-11-21T13:39:33;99090.36;;;2.86;78.21
59686;BME280;45554;51.096;16.976;2022-11-21T13:42:04;99090.34;;;2.78;78.14
59686;BME280;45554;51.096;16.976;2022-11-21T13:44:51;99101.92;;;2.70;78.31
59686;BME280;45554;51.096;16.976;2022-11-21T13:55:48;99110.51;;;2.41;78.78
59686;BME280;45554;51.096;16.976;2022-11-21T13:58:49;99121.05;;;2.37;79.08
59686;BME280;45554;51.096;16.976;2022-11-21T14:01:49;99125.41;;;2.32;78.68
59686;BME280;45554;51.096;16.976;2022-11-21T14:07:28;99136.75;;;2.25;78.41
59686;BME280;45554;51.096;16.976;2022-11-21T14:10:03;99135.08;;;2.23;78.26
59686;BME280;45554;51.096;16.976;2022-11-21T14:12:38;99131.52;;;2.21;78.09
59686;BME280;45554;51.096;16.976;2022-11-21T14:15:23;99138.07;;;2.17;78.27
59686;BME280;45554;51.096;16.976;2022-11-21T14:17:59;99138.32;;;2.11;78.13
59686;BME280;45554;51.096;16.976;2022-11-21T14:20:48;99140.48;;;2.04;78.36
59686;BME280;45554;51.096;16.976;2022-11-21T14:23:19;99145.65;;;1.99;78.64
59686;BME280;45554;51.096;16.976;2022-11-21T14:25:53;99143.58;;;1.95;78.60
59686;BME280;45554;51.096;16.976;2022-11-21T14:28:27;99149.59;;;1.91;78.98
59686;BME280;45554;51.096;16.976;2022-11-21T14:31:04;99150.33;;;1.86;78.86
59686;BME280;45554;51.096;16.976;2022-11-21T14:33:40;99161.91;;;1.81;78.86
59686;BME280;45554;51.096;16.976;2022-11-21T14:36:10;99158.73;;;1.73;78.55
59686;BME280;45554;51.096;16.976;2022-11-21T14:38:44;99163.08;;;1.67;78.89
59686;BME280;45554;51.096;16.976;2022-11-21T14:46:27;99158.77;;;1.53;79.01
59686;BME280;45554;51.096;16.976;2022-11-21T14:48:56;99166.65;;;1.49;79.13
59686;BME280;45554;51.096;16.976;2022-11-21T14:51:36;99164.32;;;1.47;78.99
59686;BME280;45554;51.096;16.976;2022-11-21T14:54:04;99169.08;;;1.44;79.46
59686;BME280;45554;51.096;16.976;2022-11-21T14:56:33;99175.89;;;1.42;79.41
59686;BME280;45554;51.096;16.976;2022-11-21T14:59:03;99174.79;;;1.39;79.62
59686;BME280;45554;51.096;16.976;2022-11-21T15:01:36;99171.48;;;1.35;79.47
59686;BME280;45554;51.096;16.976;2022-11-21T15:04:06;99172.23;;;1.33;79.57
59686;BME280;45554;51.096;16.976;2022-11-21T15:06:42;99168.84;;;1.31;79.45
59686;BME280;45554;51.096;16.976;2022-11-21T15:09:12;99164.58;;;1.30;79.02
59686;BME280;45554;51.096;16.976;2022-11-21T15:12:06;99163.48;;;1.26;79.12